Time,TemperatureF,DewpointF,PressureIn,WindDirection,WindDirectionDegrees,WindSpeedMPH,WindSpeedGustMPH,Humidity,HourlyPrecipIn,Conditions,Clouds,dailyrainin,SolarRadiationWatts/m^2,SoftwareType,DateUTC
2013-12-18 00:01:00,63.4,59.5,29.97,ENE,73,3.0,9.0,87,0.00,FEW,SCT,0.00,0.0,WeatherDisplay:10.37,2013-12-18 10:01:00,
2013-12-18 00:10:00,63.4,59.5,29.97,ENE,77,3.0,8.0,87,0.00,CLR,SCT,0.00,0.0,WeatherDisplay:10.37,2013-12-18 10:10:00,
2013-12-18 00:20:00,63.4,59.8,29.97,ENE,68,3.0,9.0,88,0.00,CLR,SCT,0.00,0.0,WeatherDisplay:10.37,2013-12-18 10:20:00,
2013-12-18 00:31:00,63.5,59.9,29.97,ENE,63,2.0,8.0,88,0.00,CLR,SCT,0.00,0.0,WeatherDisplay:10.37,2013-12-18 10:31:00,
2013-12-18 00:40:00,63.5,59.9,29.97,ENE,70,3.0,9.0,88,0.00,CLR,SCT,0.00,0.0,WeatherDisplay:10.37,2013-12-18 10:40:00,
2013-12-18 00:50:00,63.4,59.5,29.97,ENE,76,2.0,6.0,87,0.00,CLR,SCT,0.00,0.0,WeatherDisplay:10.37,2013-12-18 10:50:00,
2013-12-18 01:01:00,63.3,59.0,29.96,ENE,76,1.0,7.0,86,0.00,CLR,SCT,0.00,0.0,WeatherDisplay:10.37,2013-12-18 11:01:00,
2013-12-18 01:10:00,63.0,58.7,29.96,ENE,74,1.0,4.0,86,0.00,CLR,SCT,0.00,0.0,WeatherDisplay:10.37,2013-12-18 11:10:00,
2013-12-18 01:20:00,62.7,58.5,29.97,ENE,74,2.0,5.0,86,0.00,CLR,SCT,0.00,0.0,WeatherDisplay:10.37,2013-12-18 11:20:00,
2013-12-18 01:31:00,62.6,58.4,29.96,ENE,75,1.0,7.0,86,0.00,CLR,SCT,0.00,0.0,WeatherDisplay:10.37,2013-12-18 11:31:00,
2013-12-18 01:40:00,62.5,58.3,29.96,ENE,70,1.0,5.0,86,0.00,CLR,SCT,0.00,0.0,WeatherDisplay:10.37,2013-12-18 11:40:00,
2013-12-18 01:50:00,62.3,58.1,29.96,ENE,69,1.0,3.0,86,0.00,CLR,SCT,0.00,0.0,WeatherDisplay:10.37,2013-12-18 11:50:00,
2013-12-18 02:01:00,62.1,58.2,29.95,ENE,69,0.0,4.0,87,0.00,CLR,SCT,0.00,0.0,WeatherDisplay:10.37,2013-12-18 12:01:00,
2013-12-18 02:10:00,62.0,58.4,29.95,ENE,69,2.0,3.0,88,0.00,CLR,SCT,0.00,0.0,WeatherDisplay:10.37,2013-12-18 12:10:00,
2013-12-18 02:20:00,62.1,58.8,29.95,ENE,72,2.0,9.0,89,0.00,CLR,SCT,0.00,0.0,WeatherDisplay:10.37,2013-12-18 12:20:00,
2013-12-18 02:31:00,62.0,58.7,29.95,East,86,2.0,4.0,89,0.00,CLR,SCT,0.00,0.0,WeatherDisplay:10.37,2013-12-18 12:31:00,
2013-12-18 02:40:00,62.3,59.3,29.95,East,83,1.0,5.0,90,0.00,CLR,SCT,0.00,0.0,WeatherDisplay:10.37,2013-12-18 12:40:00,
2013-12-18 02:50:00,62.4,59.1,29.95,East,79,0.0,4.0,89,0.00,CLR,SCT,0.00,0.0,WeatherDisplay:10.37,2013-12-18 12:50:00,
2013-12-18 03:01:00,62.2,58.9,29.95,East,79,0.0,4.0,89,0.00,CLR,SCT,0.00,0.0,WeatherDisplay:10.37,2013-12-18 13:01:00,
2013-12-18 03:10:00,61.8,58.5,29.94,East,79,0.0,3.0,89,0.00,CLR,SCT,0.00,0.0,WeatherDisplay:10.37,2013-12-18 13:10:00,
2013-12-18 03:20:00,61.5,57.9,29.94,ENE,78,2.0,5.0,88,0.00,CLR,SCT,0.00,0.0,WeatherDisplay:10.37,2013-12-18 13:20:00,
2013-12-18 03:31:00,61.3,57.7,29.95,ENE,78,2.0,5.0,88,0.00,CLR,SCT,0.00,0.0,WeatherDisplay:10.37,2013-12-18 13:31:00,
2013-12-18 03:40:00,61.3,57.7,29.95,East,80,2.0,5.0,88,0.00,CLR,SCT,0.00,0.0,WeatherDisplay:10.37,2013-12-18 13:40:00,
2013-12-18 03:50:00,61.3,58.0,29.95,East,81,0.0,4.0,89,0.00,CLR,SCT,0.00,0.0,WeatherDisplay:10.37,2013-12-18 13:50:00,
2013-12-18 04:01:00,61.3,58.3,29.95,East,81,0.0,3.0,90,0.00,CLR,SCT,0.00,0.0,WeatherDisplay:10.37,2013-12-18 14:01:00,
2013-12-18 04:10:00,61.7,59.4,29.94,East,80,2.0,4.0,92,0.00,FEW,SCT,0.00,0.0,WeatherDisplay:10.37,2013-12-18 14:10:00,
2013-12-18 04:20:00,61.8,59.5,29.94,ENE,77,2.0,7.0,92,0.00,FEW,SCT,0.00,0.0,WeatherDisplay:10.37,2013-12-18 14:20:00,
2013-12-18 04:31:00,61.9,59.6,29.95,ENE,69,1.0,7.0,92,0.00,FEW,SCT,0.00,0.0,WeatherDisplay:10.37,2013-12-18 14:31:00,
2013-12-18 04:40:00,62.0,59.6,29.95,ENE,69,0.0,3.0,92,0.00,FEW,SCT,0.00,0.0,WeatherDisplay:10.37,2013-12-18 14:40:00,
2013-12-18 04:50:00,62.3,60.2,29.95,ENE,74,2.0,5.0,93,0.00,FEW,SCT,0.00,0.0,WeatherDisplay:10.37,2013-12-18 14:50:00,
2013-12-18 05:01:00,62.6,60.5,29.95,ENE,76,1.0,5.0,93,0.00,FEW,SCT,0.00,0.0,WeatherDisplay:10.37,2013-12-18 15:01:00,
2013-12-18 05:10:00,63.0,60.9,29.95,East,94,1.0,6.0,93,0.00,BKN,SCT,0.00,0.0,WeatherDisplay:10.37,2013-12-18 15:10:00,
2013-12-18 05:20:00,63.4,61.3,29.95,East,80,0.0,4.0,93,0.00,BKN,SCT,0.00,0.0,WeatherDisplay:10.37,2013-12-18 15:20:00,
2013-12-18 05:31:00,63.4,61.0,29.94,East,79,1.0,3.0,92,0.00,BKN,SCT,0.00,0.0,WeatherDisplay:10.37,2013-12-18 15:31:00,
2013-12-18 05:40:00,63.0,60.7,29.94,East,79,2.0,4.0,92,0.00,BKN,SCT,0.00,0.0,WeatherDisplay:10.37,2013-12-18 15:40:00,
2013-12-18 05:50:00,62.6,60.0,29.94,ENE,73,1.0,6.0,91,0.00,BKN,SCT,0.00,0.0,WeatherDisplay:10.37,2013-12-18 15:50:00,
2013-12-18 06:01:00,62.3,59.3,29.94,ENE,77,1.0,4.0,90,0.00,BKN,SCT,0.00,0.0,WeatherDisplay:10.37,2013-12-18 16:01:00,
2013-12-18 06:10:00,62.0,59.0,29.94,ENE,77,0.0,5.0,90,0.00,SCT,SCT,0.00,0.0,WeatherDisplay:10.37,2013-12-18 16:10:00,
2013-12-18 06:20:00,61.7,58.7,29.95,ENE,77,1.0,4.0,90,0.00,SCT,SCT,0.00,0.0,WeatherDisplay:10.37,2013-12-18 16:20:00,
2013-12-18 06:31:00,61.4,58.4,29.95,ENE,77,0.0,4.0,90,0.00,SCT,SCT,0.00,0.0,WeatherDisplay:10.37,2013-12-18 16:31:00,
2013-12-18 06:41:00,61.2,58.2,29.96,ENE,77,2.0,4.0,90,0.00,SCT,SCT,0.00,0.0,WeatherDisplay:10.37,2013-12-18 16:41:00,
2013-12-18 06:51:00,61.3,58.3,29.96,ENE,77,1.0,5.0,90,0.00,SCT,SCT,0.00,0.0,WeatherDisplay:10.37,2013-12-18 16:51:00,
2013-12-18 07:01:00,61.5,58.5,29.96,ENE,68,0.0,4.0,90,0.00,SCT,SCT,0.00,0.1,WeatherDisplay:10.37,2013-12-18 17:01:00,
2013-12-18 07:11:00,61.8,59.2,29.97,East,81,0.0,4.0,91,0.00,SCT,SCT,0.00,0.6,WeatherDisplay:10.37,2013-12-18 17:11:00,
2013-12-18 07:21:00,61.9,58.9,29.97,ENE,76,0.0,5.0,90,0.00,SCT,SCT,0.00,1.4,WeatherDisplay:10.37,2013-12-18 17:21:00,
2013-12-18 07:31:00,61.7,59.0,29.97,NE,55,2.0,5.0,91,0.00,SCT,SCT,0.00,2.4,WeatherDisplay:10.37,2013-12-18 17:31:00,
2013-12-18 07:41:00,62.0,59.3,29.97,East,86,1.0,5.0,91,0.00,SCT,SCT,0.00,4.1,WeatherDisplay:10.37,2013-12-18 17:41:00,
2013-12-18 07:51:00,62.8,60.2,29.97,East,87,2.0,4.0,91,0.00,SCT,SCT,0.00,6.2,WeatherDisplay:10.37,2013-12-18 17:51:00,
2013-12-18 08:01:00,64.5,61.2,29.97,East,87,0.0,5.0,89,0.00,SCT,SCT,0.00,9.3,WeatherDisplay:10.37,2013-12-18 18:01:00,
2013-12-18 08:11:00,66.2,61.9,29.97,East,87,2.0,5.0,86,0.00,-RA,SCT,0.00,73.3,WeatherDisplay:10.37,2013-12-18 18:11:00,
2013-12-18 08:21:00,67.6,62.3,29.97,East,86,3.0,5.0,83,0.00,-RA,SCT,0.00,95.6,WeatherDisplay:10.37,2013-12-18 18:21:00,
2013-12-18 08:31:00,68.4,63.1,29.98,NE,50,5.0,9.0,83,0.00,-RA,SCT,0.00,119.1,WeatherDisplay:10.37,2013-12-18 18:31:00,
2013-12-18 08:41:00,68.8,63.4,29.98,NE,51,1.0,9.0,83,0.00, +RA,SCT,0.00,159.2,WeatherDisplay:10.37,2013-12-18 18:41:00,
2013-12-18 08:51:00,69.4,64.3,29.98,NE,37,5.0,8.0,84,0.00, +RA,SCT,0.00,186.6,WeatherDisplay:10.37,2013-12-18 18:51:00,
2013-12-18 09:01:00,69.9,64.8,29.98,NE,34,5.0,8.0,84,0.00, +RA,SCT,0.00,236.7,WeatherDisplay:10.37,2013-12-18 19:01:00,
2013-12-18 09:11:00,70.5,65.4,29.98,NE,35,3.0,9.0,84,0.00,SCT,SCT,0.00,312.8,WeatherDisplay:10.37,2013-12-18 19:11:00,
2013-12-18 09:21:00,71.5,65.0,29.98,NE,54,3.0,10.0,80,0.00,SCT,SCT,0.00,161.7,WeatherDisplay:10.37,2013-12-18 19:21:00,
2013-12-18 09:31:00,71.7,64.1,29.98,ENE,74,6.0,10.0,77,0.00,SCT,SCT,0.00,278.8,WeatherDisplay:10.37,2013-12-18 19:31:00,
2013-12-18 09:41:00,71.9,64.7,29.98,East,85,1.0,9.0,78,0.00,SCT,SCT,0.00,299.4,WeatherDisplay:10.37,2013-12-18 19:41:00,
2013-12-18 09:51:00,72.7,64.7,29.98,NE,38,7.0,12.0,76,0.00,SCT,SCT,0.00,324.0,WeatherDisplay:10.37,2013-12-18 19:51:00,
2013-12-18 10:01:00,72.9,65.2,29.98,ENE,68,3.0,13.0,77,0.00,SCT,SCT,0.00,364.7,WeatherDisplay:10.37,2013-12-18 20:01:00,
2013-12-18 10:11:00,73.2,64.8,29.98,NE,49,2.0,12.0,75,0.00,CLR,SCT,0.00,381.2,WeatherDisplay:10.37,2013-12-18 20:11:00,
2013-12-18 10:21:00,73.4,65.0,29.98,NE,39,8.0,12.0,75,0.00,CLR,SCT,0.00,392.9,WeatherDisplay:10.37,2013-12-18 20:21:00,
2013-12-18 10:31:00,73.5,65.5,29.97,NNE,27,6.0,13.0,76,0.00,CLR,SCT,0.00,423.1,WeatherDisplay:10.37,2013-12-18 20:31:00,
2013-12-18 10:41:00,73.8,65.0,29.97,NE,42,3.0,12.0,74,0.00,CLR,SCT,0.00,437.5,WeatherDisplay:10.37,2013-12-18 20:41:00,
2013-12-18 10:51:00,74.3,65.8,29.96,NE,50,2.0,12.0,75,0.00,CLR,SCT,0.00,500.0,WeatherDisplay:10.37,2013-12-18 20:51:00,
2013-12-18 11:01:00,74.8,64.4,29.96,NE,52,5.0,13.0,70,0.00,CLR,SCT,0.00,634.6,WeatherDisplay:10.37,2013-12-18 21:01:00,
2013-12-18 11:11:00,75.1,65.5,29.95,NE,42,6.0,12.0,72,0.00,SCT,SCT,0.00,616.7,WeatherDisplay:10.37,2013-12-18 21:11:00,
2013-12-18 11:21:00,75.1,65.5,29.95,NE,47,8.0,12.0,72,0.00,SCT,SCT,0.00,561.6,WeatherDisplay:10.37,2013-12-18 21:21:00,
2013-12-18 11:31:00,75.7,65.7,29.95,NE,51,7.0,16.0,71,0.00,SCT,SCT,0.00,548.1,WeatherDisplay:10.37,2013-12-18 21:31:00,
2013-12-18 11:41:00,76.2,65.7,29.94,NE,46,7.0,13.0,70,0.00,SCT,SCT,0.00,576.2,WeatherDisplay:10.37,2013-12-18 21:41:00,
2013-12-18 11:51:00,76.1,65.6,29.94,NE,37,8.0,13.0,70,0.00,SCT,SCT,0.00,671.4,WeatherDisplay:10.37,2013-12-18 21:51:00,
2013-12-18 12:01:00,76.2,65.3,29.94,NE,40,8.0,17.0,69,0.00,SCT,SCT,0.00,945.8,WeatherDisplay:10.37,2013-12-18 22:01:00,
2013-12-18 12:11:00,76.2,65.3,29.93,NE,37,8.0,14.0,69,0.00,SCT,SCT,0.00,1216.3,WeatherDisplay:10.37,2013-12-18 22:11:00,
2013-12-18 12:21:00,76.4,65.9,29.92,NE,43,6.0,16.0,70,0.00,SCT,SCT,0.00,1278.0,WeatherDisplay:10.37,2013-12-18 22:21:00,
2013-12-18 12:31:00,76.3,65.0,29.92,NNE,32,8.0,15.0,68,0.00,SCT,SCT,0.00,1306.5,WeatherDisplay:10.37,2013-12-18 22:31:00,
2013-12-18 12:41:00,76.0,65.1,29.91,NNE,20,6.0,12.0,69,0.00,SCT,SCT,0.00,1359.6,WeatherDisplay:10.37,2013-12-18 22:41:00,
2013-12-18 12:51:00,75.6,65.1,29.92,NE,53,7.0,17.0,70,0.00,SCT,SCT,0.00,1269.4,WeatherDisplay:10.37,2013-12-18 22:51:00,
2013-12-18 13:01:00,75.5,64.6,29.90,NE,49,6.0,15.0,69,0.00,SCT,SCT,0.00,1202.9,WeatherDisplay:10.37,2013-12-18 23:01:00,
2013-12-18 13:11:00,76.1,65.2,29.90,NE,37,8.0,15.0,69,0.00,SCT,SCT,0.00,847.4,WeatherDisplay:10.37,2013-12-18 23:11:00,
2013-12-18 13:21:00,75.8,65.7,29.90,NNE,24,8.0,15.0,71,0.00,SCT,SCT,0.00,1142.8,WeatherDisplay:10.37,2013-12-18 23:21:00,
2013-12-18 13:31:00,75.9,65.0,29.90,NE,46,3.0,15.0,69,0.00,SCT,SCT,0.00,1088.6,WeatherDisplay:10.37,2013-12-18 23:31:00,
2013-12-18 13:41:00,75.5,64.6,29.89,NE,38,8.0,15.0,69,0.00,SCT,SCT,0.00,1093.8,WeatherDisplay:10.37,2013-12-18 23:41:00,
2013-12-18 13:51:00,75.8,65.4,29.88,NE,51,5.0,14.0,70,0.00,SCT,SCT,0.00,920.7,WeatherDisplay:10.37,2013-12-18 23:51:00,
2013-12-18 14:01:00,75.9,65.0,29.88,ENE,68,5.0,16.0,69,0.00,SCT,SCT,0.00,507.3,WeatherDisplay:10.37,2013-12-19 00:01:00,
2013-12-18 14:11:00,76.5,65.1,29.88,NE,50,7.0,14.0,68,0.00,SCT,SCT,0.00,435.0,WeatherDisplay:10.37,2013-12-19 00:11:00,
2013-12-18 14:21:00,76.6,64.4,29.88,ENE,61,7.0,14.0,66,0.00,SCT,SCT,0.00,410.4,WeatherDisplay:10.37,2013-12-19 00:21:00,
2013-12-18 14:31:00,76.7,64.1,29.88,ENE,57,7.0,13.0,65,0.00,SCT,SCT,0.00,395.7,WeatherDisplay:10.37,2013-12-19 00:31:00,
2013-12-18 14:41:00,76.4,64.6,29.87,NE,52,2.0,13.0,67,0.00,SCT,SCT,0.00,357.7,WeatherDisplay:10.37,2013-12-19 00:41:00,
2013-12-18 14:51:00,77.0,65.2,29.87,NE,40,2.0,15.0,67,0.00,SCT,SCT,0.00,331.0,WeatherDisplay:10.37,2013-12-19 00:51:00,
2013-12-18 15:01:00,77.0,65.2,29.86,ENE,63,3.0,15.0,67,0.00,SCT,SCT,0.00,306.4,WeatherDisplay:10.37,2013-12-19 01:01:00,
2013-12-18 15:11:00,76.9,64.3,29.87,NE,54,5.0,15.0,65,0.00,SCT,SCT,0.00,280.7,WeatherDisplay:10.37,2013-12-19 01:11:00,
2013-12-18 15:21:00,76.7,65.8,29.87,ENE,65,2.0,14.0,69,0.00,SCT,SCT,0.00,254.2,WeatherDisplay:10.37,2013-12-19 01:21:00,
2013-12-18 15:31:00,76.5,65.5,29.87,NE,55,7.0,16.0,69,0.00,SCT,SCT,0.00,229.4,WeatherDisplay:10.37,2013-12-19 01:31:00,
2013-12-18 15:41:00,75.3,64.8,29.87,ENE,63,8.0,18.0,70,0.00,SCT,SCT,0.00,203.9,WeatherDisplay:10.37,2013-12-19 01:41:00,
2013-12-18 15:51:00,74.9,64.5,29.87,ENE,74,7.0,17.0,70,0.00,SCT,SCT,0.00,180.5,WeatherDisplay:10.37,2013-12-19 01:51:00,
2013-12-18 16:01:00,74.1,64.5,29.87,ENE,71,10.0,20.0,72,0.00,SCT,SCT,0.00,157.0,WeatherDisplay:10.37,2013-12-19 02:01:00,
2013-12-18 16:11:00,73.8,64.6,29.86,ENE,68,10.0,17.0,73,0.00,CLR,SCT,0.00,135.2,WeatherDisplay:10.37,2013-12-19 02:11:00,
2013-12-18 16:21:00,73.4,64.2,29.87,ENE,73,10.0,18.0,73,0.00,CLR,SCT,0.00,155.4,WeatherDisplay:10.37,2013-12-19 02:21:00,
2013-12-18 16:31:00,73.8,63.8,29.88,East,81,8.0,18.0,71,0.00,CLR,SCT,0.00,130.7,WeatherDisplay:10.37,2013-12-19 02:31:00,
2013-12-18 16:41:00,74.6,64.1,29.88,East,91,5.0,12.0,70,0.00,CLR,SCT,0.00,77.7,WeatherDisplay:10.37,2013-12-19 02:41:00,
2013-12-18 16:51:00,75.1,64.6,29.88,SSE,154,3.0,8.0,70,0.00,CLR,SCT,0.00,59.5,WeatherDisplay:10.37,2013-12-19 02:51:00,
2013-12-18 17:01:00,74.6,63.3,29.89,SE,146,3.0,9.0,68,0.00,CLR,SCT,0.00,40.8,WeatherDisplay:10.37,2013-12-19 03:01:00,
2013-12-18 17:11:00,73.5,61.9,29.89,SE,129,5.0,10.0,67,0.00,SCT,SCT,0.00,32.7,WeatherDisplay:10.37,2013-12-19 03:11:00,
2013-12-18 17:21:00,73.1,62.7,29.90,ESE,120,5.0,9.0,70,0.00,SCT,SCT,0.00,20.8,WeatherDisplay:10.37,2013-12-19 03:21:00,
2013-12-18 17:31:00,72.7,61.5,29.91,SE,125,2.0,9.0,68,0.00,SCT,SCT,0.00,3.5,WeatherDisplay:10.37,2013-12-19 03:31:00,
2013-12-18 17:41:00,72.0,62.4,29.91,South,172,2.0,10.0,72,0.00,SCT,SCT,0.00,0.3,WeatherDisplay:10.37,2013-12-19 03:41:00,
2013-12-18 17:51:00,70.8,62.1,29.91,South,184,6.0,12.0,74,0.00,SCT,SCT,0.00,0.0,WeatherDisplay:10.37,2013-12-19 03:51:00,
2013-12-18 18:01:00,69.8,61.5,29.91,South,172,1.0,12.0,75,0.00,SCT,SCT,0.00,0.0,WeatherDisplay:10.37,2013-12-19 04:01:00,
2013-12-18 18:10:00,69.2,61.3,29.91,South,175,3.0,13.0,76,0.00,SCT,SCT,0.00,0.0,WeatherDisplay:10.37,2013-12-19 04:10:00,
2013-12-18 18:20:00,68.6,60.7,29.92,ESE,110,2.0,7.0,76,0.00,SCT,SCT,0.00,0.0,WeatherDisplay:10.37,2013-12-19 04:20:00,
2013-12-18 18:31:00,68.4,60.9,29.92,SE,139,2.0,8.0,77,0.00,SCT,SCT,0.00,0.0,WeatherDisplay:10.37,2013-12-19 04:31:00,
2013-12-18 18:40:00,68.2,60.7,29.92,South,174,0.0,6.0,77,0.00,SCT,SCT,0.00,0.0,WeatherDisplay:10.37,2013-12-19 04:40:00,
2013-12-18 18:50:00,68.0,60.9,29.92,South,183,0.0,2.0,78,0.00,SCT,SCT,0.00,0.0,WeatherDisplay:10.37,2013-12-19 04:50:00,
2013-12-18 19:01:00,67.5,60.4,29.92,South,183,2.0,3.0,78,0.00,SCT,SCT,0.00,0.0,WeatherDisplay:10.37,2013-12-19 05:01:00,
2013-12-18 19:10:00,67.0,60.6,29.93,South,183,0.0,3.0,80,0.00,SCT,SCT,0.00,0.0,WeatherDisplay:10.37,2013-12-19 05:10:00,
2013-12-18 19:20:00,66.7,60.7,29.93,South,183,0.0,4.0,81,0.00,SCT,SCT,0.00,0.0,WeatherDisplay:10.37,2013-12-19 05:20:00,
2013-12-18 19:31:00,66.1,60.1,29.94,South,183,0.0,3.0,81,0.00,SCT,SCT,0.00,0.0,WeatherDisplay:10.37,2013-12-19 05:31:00,
2013-12-18 19:40:00,65.4,59.8,29.94,South,183,0.0,0.0,82,0.00,SCT,SCT,0.00,0.0,WeatherDisplay:10.37,2013-12-19 05:40:00,
2013-12-18 19:50:00,64.9,59.6,29.94,South,183,0.0,3.0,83,0.00,SCT,SCT,0.00,0.0,WeatherDisplay:10.37,2013-12-19 05:50:00,
2013-12-18 20:01:00,64.6,59.4,29.94,South,182,0.0,4.0,83,0.00,SCT,SCT,0.00,0.0,WeatherDisplay:10.37,2013-12-19 06:01:00,
2013-12-18 20:10:00,64.5,59.2,29.94,South,182,0.0,4.0,83,0.00,CLR,SCT,0.00,0.0,WeatherDisplay:10.37,2013-12-19 06:10:00,
2013-12-18 20:20:00,64.1,58.8,29.94,South,182,0.0,3.0,83,0.00,CLR,SCT,0.00,0.0,WeatherDisplay:10.37,2013-12-19 06:20:00,
2013-12-18 20:31:00,63.8,58.9,29.94,South,182,2.0,4.0,84,0.00,CLR,SCT,0.00,0.0,WeatherDisplay:10.37,2013-12-19 06:31:00,
2013-12-18 20:41:00,63.8,59.2,29.94,South,181,2.0,5.0,85,0.00,CLR,SCT,0.00,0.0,WeatherDisplay:10.37,2013-12-19 06:41:00,
2013-12-18 20:50:00,64.4,59.8,29.94,South,184,0.0,7.0,85,0.00,CLR,SCT,0.00,0.0,WeatherDisplay:10.37,2013-12-19 06:50:00,
2013-12-18 21:01:00,64.6,59.7,29.95,SSE,147,2.0,5.0,84,0.00,CLR,SCT,0.00,0.0,WeatherDisplay:10.37,2013-12-19 07:01:00,
2013-12-18 21:10:00,64.5,59.2,29.95,SE,144,2.0,4.0,83,0.00,CLR,SCT,0.00,0.0,WeatherDisplay:10.37,2013-12-19 07:10:00,
2013-12-18 21:20:00,64.4,58.8,29.95,SE,133,3.0,4.0,82,0.00,CLR,SCT,0.00,0.0,WeatherDisplay:10.37,2013-12-19 07:20:00,
2013-12-18 21:30:00,64.1,58.5,29.95,East,93,0.0,5.0,82,0.00,CLR,SCT,0.00,0.0,WeatherDisplay:10.37,2013-12-19 07:30:00,
2013-12-18 21:40:00,63.7,57.8,29.95,East,90,0.0,2.0,81,0.00,CLR,SCT,0.00,0.0,WeatherDisplay:10.37,2013-12-19 07:40:00,
2013-12-18 21:50:00,63.3,57.7,29.96,East,90,1.0,3.0,82,0.00,CLR,SCT,0.00,0.0,WeatherDisplay:10.37,2013-12-19 07:50:00,
2013-12-18 22:00:00,63.0,57.8,29.97,East,90,2.0,4.0,83,0.00,CLR,SCT,0.00,0.0,WeatherDisplay:10.37,2013-12-19 08:00:00,
2013-12-18 22:10:00,63.0,57.8,29.97,East,90,0.0,4.0,83,0.00,FEW,SCT,0.00,0.0,WeatherDisplay:10.37,2013-12-19 08:10:00,
2013-12-18 22:20:00,63.1,57.6,29.97,East,90,0.0,4.0,82,0.00,FEW,SCT,0.00,0.0,WeatherDisplay:10.37,2013-12-19 08:20:00,
2013-12-18 22:30:00,63.2,57.6,29.97,East,90,0.0,4.0,82,0.00,FEW,SCT,0.00,0.0,WeatherDisplay:10.37,2013-12-19 08:30:00,
2013-12-18 22:40:00,63.4,58.1,29.97,East,90,2.0,4.0,83,0.00,FEW,SCT,0.00,0.0,WeatherDisplay:10.37,2013-12-19 08:40:00,
2013-12-18 22:50:00,63.9,58.0,29.97,East,84,1.0,7.0,81,0.00,FEW,SCT,0.00,0.0,WeatherDisplay:10.37,2013-12-19 08:50:00,
2013-12-18 23:00:00,64.4,58.1,29.96,East,83,1.0,4.0,80,0.00,FEW,SCT,0.00,0.0,WeatherDisplay:10.37,2013-12-19 09:00:00,
2013-12-18 23:10:00,64.7,57.7,29.96,East,83,0.0,4.0,78,0.00,FEW,SCT,0.00,0.0,WeatherDisplay:10.37,2013-12-19 09:10:00,
2013-12-18 23:20:00,65.0,57.6,29.96,East,83,0.0,3.0,77,0.00,FEW,SCT,0.00,0.0,WeatherDisplay:10.37,2013-12-19 09:20:00,
2013-12-18 23:30:00,65.0,57.6,29.96,East,83,1.0,3.0,77,0.00,FEW,SCT,0.00,0.0,WeatherDisplay:10.37,2013-12-19 09:30:00,
2013-12-18 23:40:00,64.7,57.3,29.96,East,83,0.0,5.0,77,0.00,FEW,SCT,0.00,0.0,WeatherDisplay:10.37,2013-12-19 09:40:00,
2013-12-18 23:50:00,64.3,56.9,29.95,East,83,0.0,2.0,77,0.00,FEW,SCT,0.00,0.0,WeatherDisplay:10.37,2013-12-19 09:50:00,